createdAt,value
2019-02-17T00:00:39.592Z,2.88
2019-02-17T00:01:39.551Z,2.79
2019-02-17T00:02:39.550Z,3.02
2019-02-17T00:03:39.546Z,3.30
2019-02-17T00:04:39.539Z,3.53
2019-02-17T00:05:39.567Z,3.60
2019-02-17T00:06:39.741Z,3.61
2019-02-17T00:07:39.527Z,3.78
2019-02-17T00:08:39.516Z,3.53
2019-02-17T00:09:39.515Z,3.36
2019-02-17T00:10:39.538Z,3.18
2019-02-17T00:11:39.534Z,2.91
2019-02-17T00:12:39.503Z,2.64
2019-02-17T00:13:39.500Z,2.55
2019-02-17T00:14:39.491Z,2.55
2019-02-17T00:15:39.490Z,2.27
2019-02-17T00:16:39.505Z,2.27
2019-02-17T00:17:39.484Z,2.35
2019-02-17T00:18:39.475Z,2.26
2019-02-17T00:19:39.471Z,2.31
2019-02-17T00:20:39.489Z,2.34
2019-02-17T00:21:39.458Z,2.26
2019-02-17T00:22:39.455Z,2.28
2019-02-17T00:23:39.451Z,2.34
2019-02-17T00:24:39.446Z,2.22
2019-02-17T00:25:39.467Z,2.46
2019-02-17T00:26:39.435Z,2.33
2019-02-17T00:27:39.432Z,2.37
2019-02-17T00:28:39.423Z,2.34
2019-02-17T00:29:39.419Z,2.37
2019-02-17T00:30:39.445Z,2.31
2019-02-17T00:31:39.438Z,2.46
2019-02-17T00:32:39.402Z,2.30
2019-02-17T00:33:39.400Z,2.20
2019-02-17T00:34:39.399Z,2.10
2019-02-17T00:35:39.392Z,2.01
2019-02-17T00:36:39.412Z,1.91
2019-02-17T00:37:39.378Z,1.90
2019-02-17T00:38:39.374Z,1.82
2019-02-17T00:39:39.371Z,1.79
2019-02-17T00:40:39.362Z,1.65
2019-02-17T00:41:39.387Z,1.62
2019-02-17T00:42:39.384Z,1.51
2019-02-17T00:43:39.346Z,1.54
2019-02-17T00:44:39.341Z,1.44
2019-02-17T00:45:39.339Z,1.43
2019-02-17T00:46:39.334Z,1.47
2019-02-17T00:47:39.355Z,1.46
2019-02-17T00:48:39.323Z,1.47
2019-02-17T00:49:39.322Z,1.54
2019-02-17T00:50:39.311Z,1.62
2019-02-17T00:51:39.309Z,1.61
2019-02-17T00:52:39.328Z,1.60
2019-02-17T00:53:39.298Z,1.61
2019-02-17T00:54:39.291Z,1.60
2019-02-17T00:55:39.285Z,1.60
2019-02-17T00:56:39.281Z,1.62
2019-02-17T00:57:39.303Z,1.68
2019-02-17T00:58:39.275Z,1.62
2019-02-17T00:59:39.263Z,1.60
2019-02-17T01:00:39.259Z,1.68
2019-02-17T01:01:39.260Z,1.62
2019-02-17T01:02:39.277Z,1.62
2019-02-17T01:03:39.247Z,1.62
2019-02-17T01:04:39.241Z,1.76
2019-02-17T01:05:39.235Z,1.83
2019-02-17T01:06:39.230Z,1.87
2019-02-17T01:07:39.252Z,1.90
2019-02-17T01:08:39.220Z,1.93
2019-02-17T01:09:39.215Z,2.01
2019-02-17T01:10:39.215Z,1.98
2019-02-17T01:11:39.204Z,2.13
2019-02-17T01:12:39.227Z,2.12
2019-02-17T01:13:39.190Z,2.22
2019-02-17T01:14:39.202Z,2.27
2019-02-17T01:15:39.191Z,2.31
2019-02-17T01:16:39.209Z,2.26
2019-02-17T01:17:39.202Z,2.37
2019-02-17T01:18:39.167Z,2.33
2019-02-17T01:19:39.163Z,2.28
2019-02-17T01:20:39.154Z,2.33
2019-02-17T01:21:39.149Z,2.37
2019-02-17T01:22:39.171Z,2.37
2019-02-17T01:23:39.143Z,2.41
2019-02-17T01:24:39.134Z,2.41
2019-02-17T01:25:39.135Z,2.27
2019-02-17T01:26:39.127Z,2.19
2019-02-17T01:27:39.148Z,2.28
2019-02-17T01:28:39.138Z,2.35
2019-02-17T01:29:39.107Z,2.33
2019-02-17T01:30:39.101Z,2.48
2019-02-17T01:31:39.127Z,2.28
2019-02-17T01:32:39.092Z,2.27
2019-02-17T01:33:39.114Z,2.08
2019-02-17T01:34:39.083Z,1.97
2019-02-17T01:35:39.078Z,1.85
2019-02-17T01:36:39.072Z,1.71
2019-02-17T01:37:39.095Z,1.64
2019-02-17T01:38:39.062Z,1.52
2019-02-17T01:39:39.062Z,1.43
2019-02-17T01:40:39.050Z,1.37
2019-02-17T01:41:39.054Z,1.34
2019-02-17T01:42:39.070Z,1.21
2019-02-17T01:43:39.034Z,1.19
2019-02-17T01:44:39.032Z,1.33
2019-02-17T01:45:39.022Z,1.44
2019-02-17T01:46:39.020Z,1.71
2019-02-17T01:47:39.043Z,1.98
2019-02-17T01:48:39.004Z,2.27
2019-02-17T01:49:39.001Z,2.44
2019-02-17T01:50:39.003Z,2.63
2019-02-17T01:51:38.996Z,2.79
2019-02-17T01:52:39.012Z,3.03
2019-02-17T01:53:38.986Z,3.31
2019-02-17T01:54:38.978Z,3.57
2019-02-17T01:55:38.968Z,3.68
2019-02-17T01:56:38.968Z,3.92
2019-02-17T01:57:38.995Z,4.15
2019-02-17T01:58:38.951Z,4.16
2019-02-17T01:59:38.950Z,4.04
2019-02-17T02:00:38.945Z,4.03
2019-02-17T02:01:38.942Z,4.03
2019-02-17T02:02:38.966Z,4.19
2019-02-17T02:03:38.927Z,4.32
2019-02-17T02:04:38.955Z,4.43
2019-02-17T02:05:38.928Z,4.40
2019-02-17T02:06:38.916Z,4.28
2019-02-17T02:07:38.908Z,3.68
2019-02-17T02:08:38.931Z,2.85
2019-02-17T02:09:38.902Z,2.46
2019-02-17T02:10:38.898Z,2.33
2019-02-17T02:11:38.896Z,2.13
2019-02-17T02:12:38.912Z,2.20
2019-02-17T02:13:38.890Z,2.12
2019-02-17T02:14:38.878Z,1.91
2019-02-17T02:15:38.872Z,1.87
2019-02-17T02:16:38.868Z,1.87
2019-02-17T02:17:38.948Z,1.79
2019-02-17T02:18:38.855Z,1.80
2019-02-17T02:19:38.853Z,1.73
2019-02-17T02:20:38.847Z,1.61
2019-02-17T02:21:38.844Z,1.55
2019-02-17T02:22:38.869Z,1.51
2019-02-17T02:23:38.832Z,1.42
2019-02-17T02:24:38.828Z,1.43
2019-02-17T02:25:38.849Z,1.44
2019-02-17T02:26:38.824Z,1.44
2019-02-17T02:27:38.811Z,1.47
2019-02-17T02:28:38.836Z,1.40
2019-02-17T02:29:41.335Z,1.36
2019-02-17T02:30:38.797Z,1.39
2019-02-17T02:31:38.791Z,1.43
2019-02-17T02:32:38.788Z,1.40
2019-02-17T02:33:38.807Z,1.32
2019-02-17T02:34:38.779Z,1.28
2019-02-17T02:35:38.776Z,1.25
2019-02-17T02:36:38.762Z,1.22
2019-02-17T02:37:38.785Z,1.26
2019-02-17T02:38:38.784Z,1.25
2019-02-17T02:39:38.751Z,1.42
2019-02-17T02:40:38.744Z,1.42
2019-02-17T02:41:38.730Z,1.39
2019-02-17T02:42:38.726Z,1.54
2019-02-17T02:43:38.762Z,1.57
2019-02-17T02:44:38.717Z,1.47
2019-02-17T02:45:38.750Z,1.54
2019-02-17T02:46:38.713Z,1.47
2019-02-17T02:47:38.703Z,1.44
2019-02-17T02:48:38.703Z,1.50
2019-02-17T02:49:38.687Z,1.51
2019-02-17T02:50:38.719Z,1.50
2019-02-17T02:51:38.721Z,1.51
2019-02-17T02:52:38.671Z,1.52
2019-02-17T02:53:38.678Z,1.47
2019-02-17T02:54:38.666Z,1.47
2019-02-17T02:55:38.663Z,1.52
2019-02-17T02:56:38.659Z,1.50
2019-02-17T02:57:38.681Z,1.51
2019-02-17T02:58:38.638Z,1.47
2019-02-17T02:59:38.636Z,1.40
2019-02-17T03:00:38.624Z,1.39
2019-02-17T03:01:38.625Z,1.43
2019-02-17T03:02:38.619Z,1.34
2019-02-17T03:03:38.646Z,1.24
2019-02-17T03:04:38.612Z,1.22
2019-02-17T03:05:38.640Z,1.24
2019-02-17T03:06:38.595Z,1.26
2019-02-17T03:07:38.598Z,1.21
2019-02-17T03:08:38.596Z,1.26
2019-02-17T03:09:38.615Z,1.34
2019-02-17T03:10:38.570Z,1.24
2019-02-17T03:11:38.603Z,1.19
2019-02-17T03:12:38.568Z,1.25
2019-02-17T03:13:38.557Z,1.29
2019-02-17T03:14:38.551Z,1.33
2019-02-17T03:15:38.598Z,1.25
2019-02-17T03:16:38.568Z,1.21
2019-02-17T03:17:38.536Z,1.24
2019-02-17T03:18:38.529Z,1.28
2019-02-17T03:19:38.522Z,1.16
2019-02-17T03:20:38.515Z,1.14
2019-02-17T03:21:38.544Z,1.12
2019-02-17T03:22:38.501Z,1.08
2019-02-17T03:23:38.498Z,1.14
2019-02-17T03:24:38.495Z,1.07
2019-02-17T03:25:38.486Z,1.07
2019-02-17T03:26:38.520Z,1.04
2019-02-17T03:27:38.478Z,1.04
2019-02-17T03:28:38.470Z,1.00
2019-02-17T03:29:38.473Z,0.98
2019-02-17T03:30:38.461Z,0.97
2019-02-17T03:31:38.494Z,1.06
2019-02-17T03:32:38.446Z,1.01
2019-02-17T03:33:38.437Z,1.00
2019-02-17T03:34:38.440Z,1.03
2019-02-17T03:35:38.434Z,1.03
2019-02-17T03:36:38.461Z,0.96
2019-02-17T03:37:38.418Z,1.00
2019-02-17T03:38:38.412Z,0.90
2019-02-17T03:39:38.406Z,0.90
2019-02-17T03:40:38.406Z,0.89
2019-02-17T03:41:38.429Z,0.89
2019-02-17T03:42:38.385Z,0.76
2019-02-17T03:43:38.381Z,0.80
2019-02-17T03:44:38.380Z,0.83
2019-02-17T03:45:38.368Z,0.83
2019-02-17T03:46:38.394Z,0.90
2019-02-17T03:47:38.363Z,1.03
2019-02-17T03:48:38.359Z,1.07
2019-02-17T03:49:38.347Z,1.12
2019-02-17T03:50:38.347Z,1.21
2019-02-17T03:51:38.335Z,1.24
2019-02-17T03:52:38.373Z,1.26
2019-02-17T03:53:38.334Z,1.28
2019-02-17T03:54:38.323Z,1.29
2019-02-17T03:55:38.314Z,1.21
2019-02-17T03:56:38.348Z,1.18
2019-02-17T03:57:38.302Z,1.25
2019-02-17T03:58:38.296Z,1.26
2019-02-17T03:59:38.295Z,1.15
2019-02-17T04:00:38.287Z,1.25
2019-02-17T04:01:38.321Z,1.39
2019-02-17T04:02:38.280Z,1.25
2019-02-17T04:03:38.266Z,1.21
2019-02-17T04:04:38.258Z,1.29
2019-02-17T04:05:38.253Z,1.03
2019-02-17T04:06:38.407Z,1.14
2019-02-17T04:07:38.248Z,1.08
2019-02-17T04:08:38.241Z,1.44
2019-02-17T04:09:38.238Z,1.55
2019-02-17T04:10:38.230Z,2.01
2019-02-17T04:11:38.235Z,1.97
2019-02-17T04:12:38.248Z,2.04
2019-02-17T04:13:38.216Z,1.91
2019-02-17T04:14:38.203Z,2.01
2019-02-17T04:15:38.199Z,1.65
2019-02-17T04:16:38.224Z,1.62
2019-02-17T04:17:38.181Z,1.47
2019-02-17T04:18:38.219Z,1.47
2019-02-17T04:19:38.174Z,1.33
2019-02-17T04:20:38.184Z,1.36
2019-02-17T04:21:38.161Z,1.26
2019-02-17T04:22:38.187Z,1.19
2019-02-17T04:23:38.157Z,1.01
2019-02-17T04:24:38.141Z,0.90
2019-02-17T04:25:38.136Z,0.90
2019-02-17T04:26:38.132Z,0.90
2019-02-17T04:27:38.130Z,0.80
2019-02-17T04:28:38.162Z,0.82
2019-02-17T04:29:38.114Z,0.86
2019-02-17T04:30:38.115Z,0.88
2019-02-17T04:31:38.103Z,0.96
2019-02-17T04:32:38.125Z,0.94
2019-02-17T04:33:38.093Z,0.89
2019-02-17T04:34:38.116Z,0.75
2019-02-17T04:35:38.087Z,0.78
2019-02-17T04:36:38.125Z,0.75
2019-02-17T04:37:38.103Z,0.67
2019-02-17T04:38:38.060Z,0.72
2019-02-17T04:39:38.059Z,0.78
2019-02-17T04:40:38.058Z,0.72
2019-02-17T04:41:38.051Z,0.96
2019-02-17T04:42:38.070Z,1.06
2019-02-17T04:43:38.034Z,1.08
2019-02-17T04:44:38.035Z,1.37
2019-02-17T04:45:38.023Z,1.37
2019-02-17T04:46:38.023Z,1.39
2019-02-17T04:47:38.046Z,1.42
2019-02-17T04:48:38.001Z,1.54
2019-02-17T04:49:37.996Z,1.43
2019-02-17T04:50:37.993Z,1.43
2019-02-17T04:51:37.993Z,1.42
2019-02-17T04:52:38.014Z,1.40
2019-02-17T04:53:38.008Z,1.42
2019-02-17T04:54:37.974Z,1.40
2019-02-17T04:55:37.965Z,1.46
2019-02-17T04:56:37.956Z,1.39
2019-02-17T04:57:37.995Z,1.39
2019-02-17T04:58:37.949Z,1.37
2019-02-17T04:59:37.941Z,1.22
2019-02-17T05:00:40.489Z,1.33
2019-02-17T05:01:37.969Z,1.22
2019-02-17T05:02:37.973Z,1.42
2019-02-17T05:03:37.918Z,1.40
2019-02-17T05:04:37.911Z,1.33
2019-02-17T05:05:37.905Z,1.26
2019-02-17T05:06:40.667Z,1.29
2019-02-17T05:07:37.925Z,1.28
2019-02-17T05:08:37.887Z,1.26
2019-02-17T05:09:37.892Z,1.26
2019-02-17T05:10:37.876Z,1.36
2019-02-17T05:11:37.875Z,1.46
2019-02-17T05:12:37.913Z,1.40
2019-02-17T05:13:37.860Z,1.39
2019-02-17T05:14:37.863Z,1.34
2019-02-17T05:15:37.850Z,1.26
2019-02-17T05:16:37.857Z,1.26
2019-02-17T05:17:37.865Z,1.39
2019-02-17T05:18:37.861Z,1.34
2019-02-17T05:19:37.861Z,1.36
2019-02-17T05:20:37.824Z,1.26
2019-02-17T05:21:37.814Z,1.24
2019-02-17T05:22:39.384Z,1.22
2019-02-17T05:23:37.802Z,1.19
2019-02-17T05:24:37.840Z,1.06
2019-02-17T05:25:37.789Z,0.96
2019-02-17T05:26:37.796Z,0.83
2019-02-17T05:27:37.776Z,0.83
2019-02-17T05:28:38.302Z,0.72
2019-02-17T05:29:37.882Z,0.78
2019-02-17T05:30:38.482Z,0.78
2019-02-17T05:31:37.763Z,0.72
2019-02-17T05:32:37.789Z,0.82
2019-02-17T05:33:37.740Z,0.72
2019-02-17T05:34:37.736Z,0.71
2019-02-17T05:35:37.729Z,0.75
2019-02-17T05:36:37.760Z,0.71
2019-02-17T05:37:37.718Z,0.65
2019-02-17T05:38:37.754Z,0.70
2019-02-17T05:39:37.738Z,0.82
2019-02-17T05:40:39.299Z,0.80
2019-02-17T05:41:37.692Z,0.92
2019-02-17T05:42:37.689Z,0.80
2019-02-17T05:43:37.710Z,0.89
2019-02-17T05:44:37.714Z,0.86
2019-02-17T05:45:37.669Z,0.79
2019-02-17T05:46:39.566Z,0.76
2019-02-17T05:47:37.656Z,0.76
2019-02-17T05:48:39.795Z,0.71
2019-02-17T05:49:37.658Z,0.60
2019-02-17T05:50:37.678Z,0.64
2019-02-17T05:51:37.642Z,0.68
2019-02-17T05:52:37.690Z,0.70
2019-02-17T05:53:37.630Z,0.71
2019-02-17T05:54:37.615Z,0.76
2019-02-17T05:55:37.620Z,0.75
2019-02-17T05:56:37.641Z,0.67
2019-02-17T05:57:37.599Z,0.67
2019-02-17T05:58:37.627Z,0.58
2019-02-17T05:59:37.583Z,0.52
2019-02-17T06:00:37.673Z,0.61
2019-02-17T06:01:37.669Z,0.57
2019-02-17T06:02:37.573Z,0.53
2019-02-17T06:03:37.597Z,0.64
2019-02-17T06:04:37.557Z,0.53
2019-02-17T06:05:37.550Z,0.58
2019-02-17T06:06:37.544Z,0.58
2019-02-17T06:07:37.546Z,0.61
2019-02-17T06:08:37.961Z,0.58
2019-02-17T06:09:37.531Z,0.58
2019-02-17T06:10:37.607Z,0.62
2019-02-17T06:11:37.811Z,0.64
2019-02-17T06:12:37.498Z,0.62
2019-02-17T06:13:37.539Z,0.71
2019-02-17T06:14:37.497Z,0.57
2019-02-17T06:15:37.495Z,0.61
2019-02-17T06:16:37.496Z,0.42
2019-02-17T06:17:37.479Z,0.28
2019-02-17T06:18:37.500Z,0.21
2019-02-17T06:19:37.509Z,0.10
2019-02-17T06:20:37.463Z,0.13
2019-02-17T06:21:37.453Z,0.05
2019-02-17T06:22:37.450Z,0.12
2019-02-17T06:23:37.474Z,0.10
2019-02-17T06:24:37.433Z,0.12
2019-02-17T06:25:37.460Z,0.10
2019-02-17T06:26:37.427Z,0.05
2019-02-17T06:27:37.419Z,0.09
2019-02-17T06:28:37.412Z,0.09
2019-02-17T06:29:37.415Z,-0.01
2019-02-17T06:30:37.400Z,-0.04
2019-02-17T06:31:37.428Z,-0.04
2019-02-17T06:32:37.386Z,0.12
2019-02-17T06:33:37.380Z,0.13
2019-02-17T06:34:37.380Z,0.12
2019-02-17T06:35:37.366Z,0.10
2019-02-17T06:36:37.393Z,0.16
2019-02-17T06:37:37.352Z,0.23
2019-02-17T06:38:37.389Z,0.13
2019-02-17T06:39:37.344Z,0.18
2019-02-17T06:40:37.342Z,0.21
2019-02-17T06:41:37.335Z,0.34
2019-02-17T06:42:37.332Z,0.18
2019-02-17T06:43:37.357Z,0.27
2019-02-17T06:44:37.354Z,0.30
2019-02-17T06:45:37.311Z,0.27
2019-02-17T06:46:37.452Z,0.30
2019-02-17T06:47:37.301Z,0.25
2019-02-17T06:48:37.330Z,0.41
2019-02-17T06:49:37.292Z,0.30
2019-02-17T06:50:37.288Z,0.34
2019-02-17T06:51:37.270Z,0.33
2019-02-17T06:52:37.275Z,0.33
2019-02-17T06:53:37.290Z,0.43
2019-02-17T06:54:37.253Z,0.43
2019-02-17T06:55:37.255Z,0.39
2019-02-17T06:56:37.273Z,0.31
2019-02-17T06:57:37.234Z,0.34
2019-02-17T06:58:37.232Z,0.25
2019-02-17T06:59:37.264Z,0.42
2019-02-17T07:00:37.219Z,0.46
2019-02-17T07:01:37.222Z,0.39
2019-02-17T07:02:37.277Z,0.51
2019-02-17T07:03:37.200Z,0.49
2019-02-17T07:04:37.238Z,0.61
2019-02-17T07:05:37.198Z,0.46
2019-02-17T07:06:37.177Z,0.49
2019-02-17T07:07:37.198Z,0.48
2019-02-17T07:08:37.232Z,0.58
2019-02-17T07:09:37.191Z,0.57
2019-02-17T07:10:37.154Z,0.60
2019-02-17T07:11:37.158Z,0.61
2019-02-17T07:12:37.142Z,0.64
2019-02-17T07:13:37.142Z,0.89
2019-02-17T07:14:38.439Z,1.14
2019-02-17T07:15:37.126Z,1.43
2019-02-17T07:16:37.117Z,2.12
2019-02-17T07:17:37.787Z,2.56
2019-02-17T07:18:37.185Z,2.98
2019-02-17T07:19:37.133Z,3.50
2019-02-17T07:20:37.136Z,3.97
2019-02-17T07:21:37.093Z,4.32
2019-02-17T07:22:37.091Z,4.54
2019-02-17T07:23:37.083Z,4.80
2019-02-17T07:24:37.189Z,5.25
2019-02-17T07:25:37.088Z,5.60
2019-02-17T07:26:37.802Z,5.96
2019-02-17T07:27:37.069Z,6.56
2019-02-17T07:28:37.091Z,6.65
2019-02-17T07:29:37.787Z,6.62
2019-02-17T07:30:37.094Z,6.89
2019-02-17T07:31:37.061Z,7.22
2019-02-17T07:32:37.087Z,7.50
2019-02-17T07:33:37.123Z,7.78
2019-02-17T07:34:37.100Z,8.20
2019-02-17T07:35:37.121Z,8.55
2019-02-17T07:36:37.055Z,8.50
2019-02-17T07:37:37.069Z,8.54
2019-02-17T07:38:37.075Z,8.44
2019-02-17T07:39:37.143Z,8.60
2019-02-17T07:40:37.094Z,8.83
2019-02-17T07:41:37.042Z,8.96
2019-02-17T07:42:37.069Z,8.96
2019-02-17T07:43:37.046Z,8.93
2019-02-17T07:44:37.088Z,9.01
2019-02-17T07:45:37.048Z,9.15
2019-02-17T07:46:37.052Z,9.30
2019-02-17T07:47:37.797Z,9.39
2019-02-17T07:48:37.046Z,9.48
2019-02-17T07:49:37.171Z,9.57
2019-02-17T07:50:37.084Z,9.88
2019-02-17T07:51:37.054Z,9.64
2019-02-17T07:52:37.053Z,9.63
2019-02-17T07:53:37.056Z,9.61
2019-02-17T07:54:37.519Z,9.66
2019-02-17T07:55:37.096Z,9.78
2019-02-17T07:56:37.071Z,9.85
2019-02-17T07:57:37.062Z,9.96
2019-02-17T07:58:37.073Z,10.03
2019-02-17T07:59:37.461Z,10.03
2019-02-17T08:00:37.087Z,9.88
2019-02-17T08:01:45.011Z,10.19
2019-02-17T08:02:37.075Z,10.62
2019-02-17T08:03:37.153Z,10.84
2019-02-17T08:04:37.222Z,11.13
2019-02-17T08:05:37.159Z,11.25
2019-02-17T08:06:37.099Z,11.38
2019-02-17T08:07:37.094Z,11.38
2019-02-17T08:08:37.915Z,11.35
2019-02-17T08:09:37.154Z,11.39
2019-02-17T08:10:37.109Z,11.28
2019-02-17T08:11:37.111Z,10.76
2019-02-17T08:12:37.116Z,10.43
2019-02-17T08:13:37.121Z,9.76
2019-02-17T08:14:37.129Z,9.70
2019-02-17T08:15:37.170Z,9.58
2019-02-17T08:16:37.138Z,9.53
2019-02-17T08:17:37.154Z,9.83
2019-02-17T08:18:37.155Z,10.21
2019-02-17T08:19:37.158Z,10.94
2019-02-17T08:20:37.195Z,11.46
2019-02-17T08:21:37.172Z,11.96
2019-02-17T08:22:37.179Z,12.60
2019-02-17T08:23:37.185Z,12.74
2019-02-17T08:24:37.192Z,12.99
2019-02-17T08:25:37.216Z,13.22
2019-02-17T08:26:37.235Z,13.54
2019-02-17T08:27:37.200Z,13.69
2019-02-17T08:28:37.215Z,13.77
2019-02-17T08:29:37.217Z,12.88
2019-02-17T08:30:37.258Z,12.12
2019-02-17T08:31:37.248Z,11.64
2019-02-17T08:32:37.234Z,11.17
2019-02-17T08:33:37.245Z,10.43
2019-02-17T08:34:37.253Z,10.14
2019-02-17T08:35:37.290Z,10.09
2019-02-17T08:36:37.266Z,10.19
2019-02-17T08:37:37.321Z,9.96
2019-02-17T08:38:37.298Z,9.83
2019-02-17T08:39:37.305Z,10.18
2019-02-17T08:40:37.303Z,11.07
2019-02-17T08:41:37.313Z,11.85
2019-02-17T08:42:37.351Z,12.51
2019-02-17T08:43:37.363Z,12.77
2019-02-17T08:44:37.336Z,12.92
2019-02-17T08:45:37.352Z,13.46
2019-02-17T08:46:37.354Z,14.09
2019-02-17T08:47:37.428Z,14.31
2019-02-17T08:48:37.411Z,14.71
2019-02-17T08:49:37.388Z,15.05
2019-02-17T08:50:37.425Z,15.30
2019-02-17T08:51:37.430Z,15.42
2019-02-17T08:52:37.414Z,15.38
2019-02-17T08:53:37.421Z,15.13
2019-02-17T08:54:37.464Z,15.09
2019-02-17T08:55:37.489Z,15.19
2019-02-17T08:56:37.461Z,15.15
2019-02-17T08:57:38.091Z,15.30
2019-02-17T08:58:37.480Z,15.26
2019-02-17T08:59:37.490Z,15.21
2019-02-17T09:00:37.535Z,14.61
2019-02-17T09:01:37.519Z,14.50
2019-02-17T09:02:37.597Z,13.95
2019-02-17T09:03:37.535Z,13.00
2019-02-17T09:04:37.546Z,12.95
2019-02-17T09:05:44.177Z,13.80
2019-02-17T09:06:37.604Z,14.24
2019-02-17T09:07:37.614Z,14.74
2019-02-17T09:08:37.737Z,14.95
2019-02-17T09:09:37.603Z,15.35
2019-02-17T09:10:37.615Z,15.61
2019-02-17T09:11:37.637Z,15.68
2019-02-17T09:12:37.676Z,15.96
2019-02-17T09:13:37.657Z,16.16
2019-02-17T09:14:37.664Z,16.30
2019-02-17T09:15:37.706Z,16.00
2019-02-17T09:16:37.698Z,16.16
2019-02-17T09:17:37.701Z,16.38
2019-02-17T09:18:37.756Z,16.55
2019-02-17T09:19:37.723Z,16.40
2019-02-17T09:20:37.770Z,16.49
2019-02-17T09:21:37.748Z,16.73
2019-02-17T09:22:37.772Z,16.73
2019-02-17T09:23:37.774Z,16.52
2019-02-17T09:24:37.782Z,16.49
2019-02-17T09:25:37.832Z,16.11
2019-02-17T09:26:37.811Z,16.01
2019-02-17T09:27:37.826Z,14.75
2019-02-17T09:28:37.834Z,14.83
2019-02-17T09:29:37.856Z,15.02
2019-02-17T09:30:37.915Z,14.99
2019-02-17T09:31:37.876Z,14.75
2019-02-17T09:32:38.896Z,14.68
2019-02-17T09:33:37.902Z,14.95
2019-02-17T09:34:38.450Z,14.28
2019-02-17T09:35:37.966Z,14.94
2019-02-17T09:36:37.948Z,15.09
2019-02-17T09:37:37.965Z,15.13
2019-02-17T09:38:37.975Z,15.92
2019-02-17T09:39:37.986Z,16.15
2019-02-17T09:40:38.030Z,16.33
2019-02-17T09:41:38.018Z,16.83
2019-02-17T09:42:38.037Z,16.71
2019-02-17T09:43:38.053Z,16.45
2019-02-17T09:44:38.058Z,16.70
2019-02-17T09:45:38.101Z,17.20
2019-02-17T09:46:38.128Z,17.95
2019-02-17T09:47:38.103Z,18.36
2019-02-17T09:48:38.239Z,18.59
2019-02-17T09:49:38.142Z,18.84
2019-02-17T09:50:38.153Z,19.08
2019-02-17T09:51:38.204Z,19.35
2019-02-17T09:52:38.178Z,19.31
2019-02-17T09:53:38.193Z,19.61
2019-02-17T09:54:38.391Z,19.42
2019-02-17T09:55:38.227Z,18.90
2019-02-17T09:56:38.269Z,18.83
2019-02-17T09:57:38.295Z,18.82
2019-02-17T09:58:38.287Z,19.29
2019-02-17T09:59:38.290Z,19.14
2019-02-17T10:00:38.309Z,19.54
2019-02-17T10:01:38.357Z,18.91
2019-02-17T10:02:38.343Z,18.44
2019-02-17T10:03:38.399Z,18.28
2019-02-17T10:04:38.383Z,18.40
2019-02-17T10:05:38.396Z,18.67
2019-02-17T10:06:38.454Z,19.13
2019-02-17T10:07:38.428Z,19.39
2019-02-17T10:08:38.450Z,19.50
2019-02-17T10:09:38.471Z,19.51
2019-02-17T10:10:38.482Z,19.65
2019-02-17T10:11:38.531Z,19.69
2019-02-17T10:12:38.514Z,19.66
2019-02-17T10:13:38.583Z,19.61
2019-02-17T10:14:38.611Z,19.76
2019-02-17T10:15:38.562Z,20.02
2019-02-17T10:16:38.613Z,20.21
2019-02-17T10:17:38.593Z,20.03
2019-02-17T10:18:38.662Z,20.18
2019-02-17T10:19:38.631Z,20.10
2019-02-17T10:20:38.648Z,20.08
2019-02-17T10:21:38.690Z,20.10
2019-02-17T10:22:38.678Z,20.24
2019-02-17T10:23:38.709Z,20.13
2019-02-17T10:24:38.750Z,20.13
2019-02-17T10:25:38.731Z,19.68
2019-02-17T10:26:38.750Z,19.93
2019-02-17T10:27:38.774Z,20.21
2019-02-17T10:28:42.371Z,20.53
2019-02-17T10:29:38.832Z,20.84
2019-02-17T10:30:38.855Z,20.91
2019-02-17T10:31:38.868Z,20.93
2019-02-17T10:32:39.344Z,20.49
2019-02-17T10:33:38.870Z,20.50
2019-02-17T10:34:38.960Z,20.79
2019-02-17T10:35:40.448Z,20.95
2019-02-17T10:36:38.963Z,21.27
2019-02-17T10:37:38.942Z,20.59
2019-02-17T10:38:38.966Z,19.75
2019-02-17T10:39:38.981Z,19.70
2019-02-17T10:40:38.998Z,20.25
2019-02-17T10:41:39.056Z,20.66
2019-02-17T10:42:39.030Z,20.99
2019-02-17T10:43:39.050Z,20.56
2019-02-17T10:44:39.077Z,21.09
2019-02-17T10:45:39.091Z,21.57
2019-02-17T10:46:39.143Z,21.75
2019-02-17T10:47:39.174Z,20.91
2019-02-17T10:48:39.147Z,21.41
2019-02-17T10:49:39.167Z,21.67
2019-02-17T10:50:39.195Z,21.72
2019-02-17T10:51:39.211Z,22.07
2019-02-17T10:52:39.258Z,22.38
2019-02-17T10:53:39.243Z,22.27
2019-02-17T10:54:39.407Z,22.46
2019-02-17T10:55:39.287Z,22.69
2019-02-17T10:56:39.307Z,23.19
2019-02-17T10:57:39.366Z,23.20
2019-02-17T10:58:39.385Z,22.84
2019-02-17T10:59:39.383Z,22.86
2019-02-17T11:00:39.390Z,23.15
2019-02-17T11:01:39.417Z,23.52
2019-02-17T11:02:46.768Z,23.64
2019-02-17T11:03:39.494Z,23.89
2019-02-17T11:04:39.471Z,24.05
2019-02-17T11:05:39.500Z,24.07
2019-02-17T11:06:39.535Z,23.77
2019-02-17T11:07:39.570Z,23.79
2019-02-17T11:08:39.561Z,23.90
2019-02-17T11:09:39.585Z,23.82
2019-02-17T11:10:39.602Z,23.61
2019-02-17T11:11:39.629Z,23.60
2019-02-17T11:12:39.681Z,23.23
2019-02-17T11:13:39.700Z,23.05
2019-02-17T11:14:39.753Z,23.02
2019-02-17T11:15:39.704Z,23.02
2019-02-17T11:16:39.723Z,23.22
2019-02-17T11:17:39.774Z,23.39
2019-02-17T11:18:39.764Z,22.87
2019-02-17T11:19:39.823Z,21.63
2019-02-17T11:20:39.804Z,19.73
2019-02-17T11:21:39.825Z,19.06
2019-02-17T11:22:39.875Z,19.68
2019-02-17T11:23:39.864Z,20.46
2019-02-17T11:24:39.889Z,21.23
2019-02-17T11:25:39.904Z,21.57
2019-02-17T11:26:39.921Z,21.72
2019-02-17T11:27:39.975Z,21.98
2019-02-17T11:28:39.956Z,22.37
2019-02-17T11:29:39.975Z,22.86
2019-02-17T11:30:40.006Z,23.12
2019-02-17T11:31:40.014Z,23.08
2019-02-17T11:32:40.077Z,22.93
2019-02-17T11:33:40.048Z,22.77
2019-02-17T11:34:40.208Z,22.50
2019-02-17T11:35:40.090Z,22.06
2019-02-17T11:36:40.103Z,22.06
2019-02-17T11:37:40.159Z,22.25
2019-02-17T11:38:40.181Z,22.01
2019-02-17T11:39:40.161Z,22.10
2019-02-17T11:40:40.174Z,22.16
2019-02-17T11:41:40.194Z,22.20
2019-02-17T11:42:40.247Z,22.12
2019-02-17T11:43:40.235Z,21.99
2019-02-17T11:44:40.241Z,22.16
2019-02-17T11:45:40.263Z,21.60
2019-02-17T11:46:40.276Z,21.26
2019-02-17T11:47:40.333Z,20.91
2019-02-17T11:48:40.323Z,20.71
2019-02-17T11:49:40.336Z,20.33
2019-02-17T11:50:40.352Z,20.39
2019-02-17T11:51:40.372Z,20.25
2019-02-17T11:52:40.421Z,20.03
2019-02-17T11:53:40.442Z,19.86
2019-02-17T11:54:40.599Z,20.47
2019-02-17T11:55:40.441Z,21.14
2019-02-17T11:56:40.463Z,21.36
2019-02-17T11:57:40.517Z,21.20
2019-02-17T11:58:40.506Z,21.19
2019-02-17T11:59:40.546Z,21.29
2019-02-17T12:00:40.570Z,21.75
2019-02-17T12:01:40.556Z,21.36
2019-02-17T12:02:40.587Z,21.39
2019-02-17T12:03:40.594Z,20.79
2019-02-17T12:04:40.614Z,20.46
2019-02-17T12:05:40.671Z,19.57
2019-02-17T12:06:40.659Z,19.38
2019-02-17T12:07:40.677Z,19.57
2019-02-17T12:08:40.693Z,19.61
2019-02-17T12:09:40.714Z,19.94
2019-02-17T12:10:40.765Z,19.84
2019-02-17T12:11:40.792Z,20.56
2019-02-17T12:12:40.775Z,20.61
2019-02-17T12:13:40.824Z,20.34
2019-02-17T12:14:40.994Z,19.88
2019-02-17T12:15:40.826Z,19.83
2019-02-17T12:16:40.883Z,19.57
2019-02-17T12:17:40.873Z,19.79
2019-02-17T12:18:40.888Z,19.94
2019-02-17T12:19:40.902Z,19.84
2019-02-17T12:20:41.466Z,19.18
2019-02-17T12:21:40.990Z,19.17
2019-02-17T12:22:40.964Z,19.58
2019-02-17T12:23:41.016Z,20.06
2019-02-17T12:24:40.997Z,20.39
2019-02-17T12:25:41.018Z,20.61
2019-02-17T12:26:41.037Z,20.72
2019-02-17T12:27:41.289Z,20.74
2019-02-17T12:28:41.100Z,20.51
2019-02-17T12:29:41.101Z,20.90
2019-02-17T12:30:41.101Z,21.53
2019-02-17T12:31:41.112Z,21.75
2019-02-17T12:32:41.134Z,21.50
2019-02-17T12:33:41.176Z,20.62
2019-02-17T12:34:41.167Z,20.23
2019-02-17T12:35:41.189Z,20.41
2019-02-17T12:36:41.206Z,20.91
2019-02-17T12:37:41.216Z,21.39
2019-02-17T12:38:41.272Z,20.72
2019-02-17T12:39:41.247Z,20.72
2019-02-17T12:40:41.266Z,20.77
2019-02-17T12:41:41.399Z,20.69
2019-02-17T12:42:41.303Z,20.23
2019-02-17T12:43:41.350Z,20.59
2019-02-17T12:44:41.329Z,21.08
2019-02-17T12:45:41.346Z,20.86
2019-02-17T12:46:41.361Z,20.50
2019-02-17T12:47:41.382Z,20.21
2019-02-17T12:48:41.430Z,19.55
2019-02-17T12:49:41.420Z,19.29
2019-02-17T12:50:41.431Z,19.05
2019-02-17T12:51:41.441Z,19.28
2019-02-17T12:52:47.269Z,19.31
2019-02-17T12:53:41.506Z,19.33
2019-02-17T12:54:41.488Z,19.15
2019-02-17T12:55:41.498Z,19.18
2019-02-17T12:56:41.520Z,18.95
2019-02-17T12:57:41.527Z,19.02
2019-02-17T12:58:41.581Z,19.01
2019-02-17T12:59:41.556Z,18.47
2019-02-17T13:00:42.530Z,18.46
2019-02-17T13:01:41.583Z,18.36
2019-02-17T13:02:41.594Z,18.04
2019-02-17T13:03:41.646Z,18.19
2019-02-17T13:04:41.659Z,18.67
2019-02-17T13:05:41.686Z,18.86
2019-02-17T13:06:42.530Z,18.92
2019-02-17T13:07:42.892Z,19.29
2019-02-17T13:08:41.710Z,19.57